Mikkalo, Oregon
Current Conditions -  °F | °C
As of 11:53 AM on Monday 22 Dec 2014 (Local Time) from KDLS Reporting Station
Clear Clear  
Wind Chill: 56°   Ceiling: Unl
Heat Index: 56°   Visibility: 10mi
Dew Point: 40°   Wind: 7mph
Humidity: 55%   Direction: 340°NNW
Pressure: 30.32"   Gusts: NA
Location:  45.47°N, 120.24°W
Report Text: KDLS 221953Z AUTO 34006KT 10SM CLR 13/04 A3032 RMK AO2 SLP267 T01330044
Loading
Personal Weather Stations






























Interactive Weather Map New forecast layout! Learn more

10-Day Weather Forecast

Advertisements
Track Severe Weather on mobile